Time;durP1;ratioP1;P1;durP2;ratioP2;P2;SDS_P1;SDS_P2;PMS_P1;PMS_P2;Temp;Humidity;BMP_temperature;BMP_pressure;BME280_temperature;BME280_humidity;BME280_pressure;Samples;Min_cycle;Max_cycle;Signal;HPM_P1;HPM_P2
2024/04/26 00:00:48;;;;;;;0.50;0.50;;;21.60;46.70;;;;;;5430022;26;20006;-63
2024/04/26 00:03:13;;;;;;;0.75;0.57;;;21.60;46.70;;;;;;5431071;26;19995;-63
2024/04/26 00:05:39;;;;;;;0.52;0.50;;;21.60;46.70;;;;;;5425060;26;20471;-63
2024/04/26 00:08:05;;;;;;;0.80;0.65;;;21.50;46.60;;;;;;5429818;26;19999;-63
2024/04/26 00:10:31;;;;;;;0.93;0.70;;;21.50;46.60;;;;;;5428835;26;20005;-63
2024/04/26 00:12:57;;;;;;;1.48;0.70;;;21.50;46.60;;;;;;5442859;26;20028;-63
2024/04/26 00:15:22;;;;;;;0.95;0.63;;;21.50;46.60;;;;;;5429794;26;20029;-63
2024/04/26 00:17:48;;;;;;;1.05;0.65;;;21.50;46.60;;;;;;5427432;26;20072;-63
2024/04/26 00:20:14;;;;;;;0.85;0.60;;;21.50;46.60;;;;;;5429545;26;19999;-63
2024/04/26 00:22:39;;;;;;;0.70;0.60;;;21.50;46.60;;;;;;5428656;26;20350;-64
2024/04/26 00:25:05;;;;;;;1.08;0.68;;;21.40;46.60;;;;;;5432895;26;19999;-64
2024/04/26 00:27:31;;;;;;;0.82;0.60;;;21.40;46.70;;;;;;5455866;26;20065;-63
2024/04/26 00:29:56;;;;;;;0.73;0.68;;;21.40;46.60;;;;;;5430194;26;20007;-64
2024/04/26 00:32:22;;;;;;;1.15;0.60;;;21.40;46.60;;;;;;5427859;26;20007;-62
2024/04/26 00:34:48;;;;;;;0.98;0.60;;;21.40;46.60;;;;;;5426031;26;20002;-61
2024/04/26 00:37:13;;;;;;;0.50;0.50;;;21.40;46.60;;;;;;5430363;26;20007;-62
2024/04/26 00:39:39;;;;;;;0.70;0.55;;;21.40;46.60;;;;;;5427060;26;20018;-61
2024/04/26 00:42:06;;;;;;;0.60;0.57;;;21.40;46.60;;;;;;5430300;26;20027;-61
2024/04/26 00:44:31;;;;;;;0.80;0.70;;;21.30;46.50;;;;;;5427158;26;20631;-59
2024/04/26 00:46:58;;;;;;;0.80;0.60;;;21.30;46.50;;;;;;5424947;26;20050;-59
2024/04/26 00:49:24;;;;;;;1.08;0.63;;;21.40;46.60;;;;;;5425612;26;20010;-62
2024/04/26 00:51:50;;;;;;;0.75;0.63;;;21.30;46.60;;;;;;5430169;26;20010;-63
2024/04/26 00:54:22;;;;;;;0.80;0.60;;;21.30;46.60;;;;;;5429430;26;19998;-63
2024/04/26 00:56:59;;;;;;;1.02;0.65;;;21.30;46.60;;;;;;5430097;26;20447;-63
2024/04/26 00:59:28;;;;;;;0.70;0.60;;;21.30;46.60;;;;;;5427482;26;20451;-63
2024/04/26 01:01:54;;;;;;;0.60;0.60;;;21.30;46.60;;;;;;5424087;26;20867;-63
2024/04/26 01:04:20;;;;;;;0.70;0.57;;;21.30;46.60;;;;;;5429650;26;20421;-64
2024/04/26 01:06:45;;;;;;;0.93;0.70;;;21.30;46.60;;;;;;5431660;26;20010;-63
2024/04/26 01:09:11;;;;;;;0.82;0.55;;;21.20;46.60;;;;;;5428699;26;20008;-63
2024/04/26 01:11:37;;;;;;;0.90;0.63;;;21.20;46.50;;;;;;5427576;26;20003;-63
2024/04/26 01:14:02;;;;;;;0.63;0.50;;;21.20;46.50;;;;;;5426926;26;20448;-64
2024/04/26 01:16:28;;;;;;;0.70;0.60;;;21.20;46.50;;;;;;5428777;26;19999;-64
2024/04/26 01:18:54;;;;;;;0.90;0.68;;;21.20;46.50;;;;;;5428852;26;20000;-63
2024/04/26 01:21:21;;;;;;;0.80;0.60;;;21.20;46.50;;;;;;5431868;26;20000;-63
2024/04/26 01:23:46;;;;;;;1.02;0.70;;;21.20;46.50;;;;;;5426869;26;20497;-64
2024/04/26 01:26:12;;;;;;;1.02;0.63;;;21.20;46.60;;;;;;5431474;26;20010;-62
2024/04/26 01:28:38;;;;;;;0.70;0.60;;;21.20;46.60;;;;;;5427559;26;19996;-61
2024/04/26 01:31:03;;;;;;;0.60;0.50;;;21.20;47.10;;;;;;5426160;26;20007;-63
2024/04/26 01:33:29;;;;;;;0.70;0.60;;;21.20;46.60;;;;;;5425828;26;20000;-63
2024/04/26 01:35:55;;;;;;;0.75;0.65;;;21.10;46.50;;;;;;5428150;26;20059;-63
2024/04/26 01:38:20;;;;;;;0.80;0.60;;;21.20;46.60;;;;;;5424878;26;19995;-64
2024/04/26 01:40:46;;;;;;;0.70;0.60;;;21.10;47.00;;;;;;5432430;26;20027;-63
2024/04/26 01:43:12;;;;;;;0.57;0.57;;;21.10;46.50;;;;;;5423635;26;19992;-61
2024/04/26 01:45:37;;;;;;;1.20;0.60;;;21.10;46.50;;;;;;5430203;26;20443;-62
2024/04/26 01:48:03;;;;;;;0.57;0.55;;;21.10;46.50;;;;;;5427757;26;20003;-61
2024/04/26 01:50:29;;;;;;;0.50;0.50;;;21.10;46.50;;;;;;5426937;26;20339;-61
2024/04/26 01:52:54;;;;;;;0.70;0.60;;;21.10;46.60;;;;;;5397977;26;20025;-61
2024/04/26 01:55:20;;;;;;;1.02;0.68;;;21.10;46.50;;;;;;5424251;26;20031;-62
2024/04/26 01:57:46;;;;;;;0.82;0.70;;;21.10;46.50;;;;;;5430909;26;19999;-61
2024/04/26 02:00:12;;;;;;;0.65;0.50;;;21.10;46.60;;;;;;5424732;26;19997;-61
2024/04/26 02:02:38;;;;;;;0.60;0.60;;;21.10;46.60;;;;;;5424364;26;20018;-63
2024/04/26 02:05:05;;;;;;;0.77;0.60;;;21.10;47.10;;;;;;5429427;26;19999;-63
2024/04/26 02:07:30;;;;;;;0.70;0.60;;;21.10;46.60;;;;;;5427503;26;20426;-63
2024/04/26 02:09:57;;;;;;;0.98;0.70;;;21.00;47.10;;;;;;5422833;26;19999;-63
2024/04/26 02:12:23;;;;;;;0.98;0.75;;;21.00;46.50;;;;;;5427121;26;20611;-63
2024/04/26 02:14:48;;;;;;;0.60;0.60;;;21.00;46.50;;;;;;5424727;26;20011;-63
2024/04/26 02:17:14;;;;;;;0.73;0.60;;;21.00;46.60;;;;;;5426864;26;20000;-63
2024/04/26 02:19:40;;;;;;;1.05;0.70;;;21.00;46.50;;;;;;5428420;26;20353;-63
2024/04/26 02:22:06;;;;;;;0.60;0.60;;;21.00;46.60;;;;;;5427134;26;20003;-63
2024/04/26 02:24:31;;;;;;;0.60;0.60;;;21.00;46.60;;;;;;5428891;26;20004;-63
2024/04/26 02:26:57;;;;;;;0.60;0.57;;;21.00;46.50;;;;;;5427913;26;20010;-63
2024/04/26 02:29:23;;;;;;;1.10;0.60;;;21.00;46.60;;;;;;5425273;26;20009;-63
2024/04/26 02:31:49;;;;;;;0.80;0.70;;;21.00;46.60;;;;;;5428462;26;20378;-63
2024/04/26 02:34:15;;;;;;;1.10;0.63;;;21.00;46.50;;;;;;5424612;26;20011;-63
2024/04/26 02:36:42;;;;;;;0.95;0.70;;;21.00;46.60;;;;;;5426024;26;20484;-63
2024/04/26 02:39:07;;;;;;;0.88;0.60;;;21.00;46.60;;;;;;5428947;26;20010;-63
2024/04/26 02:41:33;;;;;;;0.98;0.60;;;21.00;46.60;;;;;;5427214;26;19999;-63
2024/04/26 02:44:01;;;;;;;0.77;0.63;;;21.00;46.60;;;;;;5427425;26;19999;-63
2024/04/26 02:46:28;;;;;;;0.70;0.60;;;20.90;46.50;;;;;;5424129;26;20000;-63
2024/04/26 02:48:54;;;;;;;0.85;0.57;;;20.90;46.50;;;;;;5424847;26;20364;-63
2024/04/26 02:51:20;;;;;;;0.90;0.77;;;20.90;46.50;;;;;;5431739;26;20007;-61
2024/04/26 02:53:46;;;;;;;0.73;0.50;;;20.90;46.50;;;;;;5428885;26;20021;-61
2024/04/26 02:56:11;;;;;;;0.50;0.50;;;20.90;46.60;;;;;;5422634;26;19999;-61
2024/04/26 02:58:38;;;;;;;0.68;0.60;;;20.90;46.50;;;;;;5432598;26;19995;-61
2024/04/26 03:01:04;;;;;;;0.60;0.60;;;20.90;46.60;;;;;;5429510;26;19995;-61
2024/04/26 03:03:30;;;;;;;0.75;0.60;;;20.90;46.60;;;;;;5427368;26;20474;-62
2024/04/26 03:05:56;;;;;;;0.60;0.60;;;20.90;46.60;;;;;;5428908;26;20005;-61
2024/04/26 03:08:21;;;;;;;0.57;0.57;;;20.90;46.60;;;;;;5433970;26;20003;-61
2024/04/26 03:10:47;;;;;;;1.13;0.70;;;20.90;46.60;;;;;;5432455;26;20066;-61
2024/04/26 03:13:13;;;;;;;1.00;0.63;;;20.90;46.60;;;;;;5430240;26;20363;-61
2024/04/26 03:15:41;;;;;;;0.50;0.50;;;20.90;46.60;;;;;;5434661;26;20173;-60
2024/04/26 03:18:06;;;;;;;1.02;0.70;;;20.80;46.60;;;;;;5424426;26;20406;-61
2024/04/26 03:20:32;;;;;;;0.60;0.60;;;20.80;46.60;;;;;;5428829;26;20019;-62
2024/04/26 03:22:57;;;;;;;0.63;0.50;;;20.80;47.10;;;;;;5432247;26;20003;-61
2024/04/26 03:25:25;;;;;;;0.80;0.60;;;20.80;46.60;;;;;;5429225;26;20682;-61
2024/04/26 03:27:50;;;;;;;0.55;0.50;;;20.80;46.60;;;;;;5428791;26;20010;-61
2024/04/26 03:30:16;;;;;;;0.68;0.60;;;20.80;47.10;;;;;;5430558;26;20013;-61
2024/04/26 03:32:42;;;;;;;0.52;0.50;;;20.80;46.60;;;;;;5431799;26;19996;-61
2024/04/26 03:35:07;;;;;;;0.82;0.57;;;20.80;46.60;;;;;;5424824;26;20584;-62
2024/04/26 03:37:33;;;;;;;0.70;0.60;;;20.80;46.60;;;;;;5427424;26;20031;-61
2024/04/26 03:39:59;;;;;;;0.60;0.60;;;20.80;46.60;;;;;;5432425;26;20701;-61
2024/04/26 03:42:24;;;;;;;0.80;0.70;;;20.80;46.60;;;;;;5426362;26;20010;-60
2024/04/26 03:44:50;;;;;;;0.70;0.50;;;20.80;46.60;;;;;;5426198;26;20629;-59
2024/04/26 03:47:15;;;;;;;0.75;0.60;;;20.80;46.60;;;;;;5431159;26;19998;-59
2024/04/26 03:49:41;;;;;;;0.52;0.52;;;20.80;46.60;;;;;;5427887;26;20003;-59
2024/04/26 03:52:06;;;;;;;0.57;0.57;;;20.80;46.60;;;;;;5431126;26;20339;-60
2024/04/26 03:54:32;;;;;;;0.68;0.60;;;20.70;46.60;;;;;;5431939;26;20010;-59
2024/04/26 03:57:01;;;;;;;0.90;0.70;;;20.70;47.10;;;;;;5430946;26;20749;-59
2024/04/26 03:59:26;;;;;;;0.50;0.50;;;20.70;46.60;;;;;;5428180;26;20018;-59
2024/04/26 04:01:52;;;;;;;0.70;0.60;;;20.70;46.60;;;;;;5434445;26;20535;-59
2024/04/26 04:04:18;;;;;;;0.73;0.60;;;20.70;46.60;;;;;;5429043;26;20460;-60
2024/04/26 04:06:44;;;;;;;0.52;0.50;;;20.70;46.70;;;;;;5431134;26;20003;-59
2024/04/26 04:09:09;;;;;;;0.82;0.80;;;20.70;46.70;;;;;;5432636;26;20014;-60
2024/04/26 04:11:35;;;;;;;0.60;0.60;;;20.70;46.70;;;;;;5430760;26;20094;-59
2024/04/26 04:14:01;;;;;;;0.60;0.60;;;20.70;46.70;;;;;;5433928;26;20003;-59
2024/04/26 04:16:27;;;;;;;0.60;0.60;;;20.70;46.70;;;;;;5431572;26;19999;-59
2024/04/26 04:18:53;;;;;;;0.85;0.70;;;20.70;46.70;;;;;;5424910;26;20443;-58
2024/04/26 04:21:19;;;;;;;0.90;0.70;;;20.70;46.70;;;;;;5433112;26;19995;-60
2024/04/26 04:23:45;;;;;;;0.73;0.60;;;20.70;46.70;;;;;;5429504;26;20397;-59
2024/04/26 04:26:11;;;;;;;0.70;0.57;;;20.70;46.70;;;;;;5432752;26;20002;-60
2024/04/26 04:28:42;;;;;;;0.70;0.70;;;20.70;46.70;;;;;;5425465;26;20008;-59
2024/04/26 04:31:09;;;;;;;0.63;0.50;;;20.70;46.80;;;;;;5430707;26;20536;-59
2024/04/26 04:33:34;;;;;;;1.05;0.73;;;20.70;46.80;;;;;;5421982;26;20010;-59
2024/04/26 04:36:00;;;;;;;0.60;0.52;;;20.70;46.80;;;;;;5427046;26;20011;-60
2024/04/26 04:38:26;;;;;;;1.10;0.70;;;20.70;46.80;;;;;;5430675;26;20018;-59
2024/04/26 04:40:51;;;;;;;1.33;0.80;;;20.70;46.80;;;;;;5430118;26;19999;-59
2024/04/26 04:43:17;;;;;;;1.02;0.60;;;20.60;46.80;;;;;;5428541;26;20338;-60
2024/04/26 04:45:42;;;;;;;1.15;0.75;;;20.60;46.70;;;;;;5428015;26;20014;-59
2024/04/26 04:48:08;;;;;;;1.25;0.63;;;20.60;46.80;;;;;;5430278;26;20010;-60
2024/04/26 04:50:34;;;;;;;0.75;0.57;;;20.60;46.80;;;;;;5425050;26;20003;-60
2024/04/26 04:52:59;;;;;;;0.73;0.68;;;20.60;46.80;;;;;;5430970;26;19995;-60
2024/04/26 04:55:25;;;;;;;0.85;0.70;;;20.60;46.80;;;;;;5422340;26;20009;-59
2024/04/26 04:57:50;;;;;;;0.95;0.60;;;20.60;46.80;;;;;;5422246;26;20022;-60
2024/04/26 05:00:16;;;;;;;1.23;0.90;;;20.60;46.80;;;;;;5431706;26;20013;-60
2024/04/26 05:02:42;;;;;;;0.82;0.70;;;20.60;46.80;;;;;;5432638;26;20000;-60
2024/04/26 05:05:07;;;;;;;0.70;0.70;;;20.60;46.90;;;;;;5425727;26;20018;-60
2024/04/26 05:07:33;;;;;;;1.42;0.93;;;20.60;46.90;;;;;;5428348;26;20007;-60
2024/04/26 05:09:59;;;;;;;1.95;1.00;;;20.60;47.00;;;;;;5429483;26;20088;-60
2024/04/26 05:12:24;;;;;;;2.28;1.00;;;20.60;47.00;;;;;;5428615;26;19995;-60
2024/04/26 05:14:50;;;;;;;2.30;1.15;;;20.60;47.10;;;;;;5427029;26;19996;-59
2024/04/26 05:17:16;;;;;;;2.30;1.10;;;20.60;47.20;;;;;;5427009;26;20068;-58
2024/04/26 05:19:42;;;;;;;2.53;1.20;;;20.60;47.30;;;;;;5427242;26;20018;-60
2024/04/26 05:22:09;;;;;;;2.55;1.15;;;20.60;47.30;;;;;;5427558;26;20007;-59
2024/04/26 05:24:35;;;;;;;1.77;1.00;;;20.60;47.30;;;;;;5423814;26;20349;-59
2024/04/26 05:27:00;;;;;;;2.80;1.30;;;20.60;47.30;;;;;;5429864;26;20011;-59
2024/04/26 05:29:26;;;;;;;2.33;1.20;;;20.60;47.50;;;;;;5429637;26;20007;-60
2024/04/26 05:31:52;;;;;;;2.22;1.30;;;20.60;47.50;;;;;;5432306;26;20010;-59
2024/04/26 05:34:18;;;;;;;4.15;1.35;;;20.60;47.60;;;;;;5425301;26;20079;-59
2024/04/26 05:36:43;;;;;;;2.45;1.23;;;20.70;47.70;;;;;;5424739;26;20007;-60
2024/04/26 05:39:09;;;;;;;2.22;1.20;;;20.70;47.50;;;;;;5428582;26;20006;-59
2024/04/26 05:41:34;;;;;;;2.55;1.25;;;20.80;47.60;;;;;;5430663;26;20320;-59
2024/04/26 05:44:01;;;;;;;2.75;1.25;;;20.80;47.50;;;;;;5425209;26;20288;-60
2024/04/26 05:46:26;;;;;;;2.67;1.20;;;20.90;47.50;;;;;;5431121;26;20011;-60
2024/04/26 05:48:52;;;;;;;2.28;1.10;;;20.90;47.50;;;;;;5429167;26;19998;-59
2024/04/26 05:51:18;;;;;;;2.10;1.05;;;20.90;47.50;;;;;;5423398;26;20038;-59
2024/04/26 05:53:44;;;;;;;3.03;1.15;;;21.00;47.60;;;;;;5427872;26;20561;-59
2024/04/26 05:56:10;;;;;;;3.05;1.83;;;21.00;47.50;;;;;;5431968;26;20019;-59
2024/04/26 05:58:37;;;;;;;2.50;1.23;;;21.10;47.40;;;;;;5427932;26;20000;-59
2024/04/26 06:01:05;;;;;;;3.40;1.40;;;21.20;47.30;;;;;;5430236;26;20007;-59
2024/04/26 06:03:31;;;;;;;2.70;1.30;;;21.20;47.20;;;;;;5430962;26;20008;-59
2024/04/26 06:05:57;;;;;;;2.78;1.20;;;21.30;47.10;;;;;;5428023;26;20002;-59
2024/04/26 06:08:22;;;;;;;2.60;1.25;;;21.30;47.20;;;;;;5427954;26;20333;-59
2024/04/26 06:10:48;;;;;;;2.72;1.23;;;21.30;47.20;;;;;;5423194;26;20004;-59
2024/04/26 06:13:14;;;;;;;1.55;1.00;;;21.40;47.20;;;;;;5428824;26;20010;-60
2024/04/26 06:15:39;;;;;;;2.22;1.17;;;21.40;47.20;;;;;;5432422;26;19999;-60
2024/04/26 06:18:05;;;;;;;2.42;1.10;;;21.40;47.10;;;;;;5441632;26;20006;-59
2024/04/26 06:20:32;;;;;;;1.90;1.00;;;21.40;47.20;;;;;;5423624;26;20010;-59
2024/04/26 06:22:58;;;;;;;2.38;1.10;;;21.40;47.10;;;;;;5428618;26;20010;-62
2024/04/26 06:25:27;;;;;;;2.35;1.10;;;21.40;47.10;;;;;;5428271;26;20003;-61
2024/04/26 06:27:52;;;;;;;1.38;0.90;;;21.50;47.10;;;;;;5427698;26;20072;-62
2024/04/26 06:30:18;;;;;;;2.53;1.00;;;21.50;47.00;;;;;;5432499;26;20002;-61
2024/04/26 06:32:44;;;;;;;1.60;1.00;;;21.50;47.00;;;;;;5430087;26;20003;-62
2024/04/26 06:35:09;;;;;;;2.22;0.90;;;21.50;47.00;;;;;;5428249;26;20348;-61
2024/04/26 06:37:35;;;;;;;1.52;0.98;;;21.50;46.90;;;;;;5434030;26;20762;-61
2024/04/26 06:40:01;;;;;;;2.90;1.30;;;21.50;46.90;;;;;;5433375;26;20715;-62
2024/04/26 06:42:26;;;;;;;2.13;1.00;;;21.50;46.80;;;;;;5432310;26;20080;-62
2024/04/26 06:44:52;;;;;;;2.92;1.20;;;21.50;46.80;;;;;;5431939;26;19996;-62
2024/04/26 06:47:18;;;;;;;1.95;1.00;;;21.60;46.80;;;;;;5427229;26;19994;-62
2024/04/26 06:49:44;;;;;;;1.85;1.00;;;21.60;46.80;;;;;;5429335;26;20016;-62
2024/04/26 06:52:10;;;;;;;2.58;1.00;;;21.60;46.80;;;;;;5433168;26;19999;-62
2024/04/26 06:54:36;;;;;;;2.00;1.08;;;21.60;46.70;;;;;;5430792;26;20426;-62
2024/04/26 06:57:02;;;;;;;2.22;1.02;;;21.60;46.70;;;;;;5432991;26;19996;-62
2024/04/26 06:59:28;;;;;;;1.98;1.10;;;21.60;46.70;;;;;;5427363;26;19995;-62
2024/04/26 07:01:56;;;;;;;2.17;1.25;;;21.60;46.70;;;;;;5429673;26;20009;-62
2024/04/26 07:04:22;;;;;;;1.85;1.00;;;21.70;46.70;;;;;;5433793;26;20031;-62
2024/04/26 07:06:48;;;;;;;1.67;1.10;;;21.70;46.70;;;;;;5425724;26;19995;-62
2024/04/26 07:09:13;;;;;;;1.88;1.00;;;21.70;46.60;;;;;;5426162;26;20006;-62
2024/04/26 07:11:42;;;;;;;1.85;1.10;;;21.70;46.60;;;;;;5432133;26;20454;-62
2024/04/26 07:14:08;;;;;;;1.50;1.00;;;21.70;46.50;;;;;;5425641;26;20011;-62
2024/04/26 07:16:33;;;;;;;2.45;1.20;;;21.70;46.50;;;;;;5430180;26;20018;-62
2024/04/26 07:18:59;;;;;;;1.77;1.00;;;21.70;46.50;;;;;;5426302;26;20074;-62
2024/04/26 07:21:24;;;;;;;1.70;0.93;;;21.70;46.50;;;;;;5427730;26;20452;-62
2024/04/26 07:23:50;;;;;;;1.80;1.00;;;21.80;46.60;;;;;;5434022;26;20035;-62
2024/04/26 07:26:17;;;;;;;2.40;1.00;;;21.80;46.60;;;;;;5431013;26;20487;-62
2024/04/26 07:28:42;;;;;;;1.65;1.00;;;21.80;46.50;;;;;;5430588;26;20342;-62
2024/04/26 07:31:09;;;;;;;1.67;1.00;;;21.80;46.50;;;;;;5428548;26;19999;-63
2024/04/26 07:33:34;;;;;;;0.95;0.80;;;21.80;46.40;;;;;;5437868;26;19999;-62
2024/04/26 07:36:00;;;;;;;1.60;0.90;;;21.80;46.40;;;;;;5430275;26;20039;-61
2024/04/26 07:38:26;;;;;;;1.85;1.10;;;21.80;46.40;;;;;;5432141;26;20007;-61
2024/04/26 07:40:51;;;;;;;1.50;0.90;;;21.80;46.30;;;;;;5431574;26;19995;-61
2024/04/26 07:43:17;;;;;;;2.15;1.10;;;21.90;46.70;;;;;;5427961;26;20006;-62
2024/04/26 07:45:42;;;;;;;1.33;0.88;;;21.90;46.60;;;;;;5428221;26;20007;-62
2024/04/26 07:48:10;;;;;;;1.00;0.85;;;21.90;46.60;;;;;;5429291;26;19995;-62
2024/04/26 07:50:36;;;;;;;1.27;0.80;;;21.90;46.40;;;;;;5425344;26;20416;-61
2024/04/26 07:53:02;;;;;;;1.52;1.00;;;21.90;46.30;;;;;;5430130;26;19999;-61
2024/04/26 07:55:27;;;;;;;1.40;0.98;;;21.90;46.30;;;;;;5428563;26;20003;-62
2024/04/26 07:57:53;;;;;;;1.92;1.20;;;21.90;46.30;;;;;;5429632;26;20814;-62
2024/04/26 08:00:19;;;;;;;1.35;1.00;;;22.00;46.30;;;;;;5433861;26;20003;-62
2024/04/26 08:02:44;;;;;;;2.33;1.00;;;21.90;46.20;;;;;;5431791;26;19996;-62
2024/04/26 08:05:13;;;;;;;2.03;0.90;;;21.90;46.20;;;;;;5428807;26;20005;-62
2024/04/26 08:07:39;;;;;;;1.27;0.80;;;21.90;46.10;;;;;;5432036;26;20008;-62
2024/04/26 08:10:05;;;;;;;1.45;0.85;;;22.00;46.20;;;;;;5431700;26;20419;-62
2024/04/26 08:12:30;;;;;;;1.88;0.90;;;22.00;46.10;;;;;;5432534;26;20004;-61
2024/04/26 08:14:56;;;;;;;1.33;0.80;;;22.00;46.10;;;;;;5428489;26;20015;-62
2024/04/26 08:17:21;;;;;;;1.65;1.00;;;22.00;46.10;;;;;;5430925;26;20013;-62
2024/04/26 08:19:47;;;;;;;1.88;0.90;;;22.00;46.10;;;;;;5427317;26;20254;-62
2024/04/26 08:22:13;;;;;;;1.13;0.90;;;22.00;46.00;;;;;;5427407;26;20038;-62
2024/04/26 08:24:38;;;;;;;1.73;1.00;;;22.00;46.00;;;;;;5430659;26;19999;-62
2024/04/26 08:27:04;;;;;;;1.73;1.00;;;22.00;46.00;;;;;;5430198;26;20004;-61
2024/04/26 08:29:31;;;;;;;1.98;0.90;;;22.00;46.00;;;;;;5423097;26;20491;-62
2024/04/26 08:31:57;;;;;;;2.40;1.00;;;22.00;46.00;;;;;;5423430;26;20118;-63
2024/04/26 08:34:24;;;;;;;1.40;0.88;;;22.00;45.90;;;;;;5431387;26;20150;-62
2024/04/26 08:36:50;;;;;;;1.35;0.88;;;22.00;45.90;;;;;;5423229;26;20015;-62
2024/04/26 08:39:16;;;;;;;1.30;0.80;;;22.00;45.90;;;;;;5442732;26;20003;-62
2024/04/26 08:41:42;;;;;;;1.50;0.80;;;22.00;45.80;;;;;;5431330;26;20458;-59
2024/04/26 08:44:09;;;;;;;0.95;0.77;;;22.10;45.90;;;;;;5430430;26;20071;-59
2024/04/26 08:46:37;;;;;;;2.97;0.98;;;22.10;45.90;;;;;;5435827;26;20007;-60
2024/04/26 08:49:03;;;;;;;1.33;0.90;;;22.10;46.50;;;;;;5432067;26;20376;-59
2024/04/26 08:51:32;;;;;;;1.33;0.80;;;22.10;45.80;;;;;;5425426;26;20003;-60
2024/04/26 08:53:58;;;;;;;1.73;1.10;;;22.10;45.80;;;;;;5430194;26;20075;-60
2024/04/26 08:56:25;;;;;;;1.23;0.80;;;22.10;45.70;;;;;;5428288;26;20007;-59
2024/04/26 08:58:54;;;;;;;1.88;1.00;;;22.10;45.70;;;;;;5427457;26;20022;-59
2024/04/26 09:01:20;;;;;;;1.67;0.90;;;22.10;45.70;;;;;;5428504;26;20408;-60
2024/04/26 09:03:46;;;;;;;1.30;0.90;;;22.10;45.60;;;;;;5429554;26;20000;-60
2024/04/26 09:06:15;;;;;;;1.88;1.15;;;22.10;45.60;;;;;;5423872;26;20010;-59
2024/04/26 09:08:41;;;;;;;1.20;0.85;;;22.10;46.10;;;;;;5429876;26;20370;-60
2024/04/26 09:11:13;;;;;;;1.15;0.80;;;22.10;45.60;;;;;;5432338;26;20017;-59
2024/04/26 09:13:38;;;;;;;1.05;0.80;;;22.10;45.60;;;;;;5428121;26;19999;-60
2024/04/26 09:16:04;;;;;;;1.73;1.00;;;22.10;46.10;;;;;;5424338;26;20003;-59
2024/04/26 09:18:30;;;;;;;1.45;0.93;;;22.10;45.70;;;;;;5426712;26;20443;-60
2024/04/26 09:20:56;;;;;;;1.20;0.80;;;22.10;45.70;;;;;;5426838;26;20011;-59
2024/04/26 09:23:22;;;;;;;1.67;1.08;;;22.10;45.70;;;;;;5426780;26;20448;-60
2024/04/26 09:25:47;;;;;;;1.30;0.90;;;22.10;45.80;;;;;;5426295;26;20102;-60
2024/04/26 09:28:13;;;;;;;1.45;0.82;;;22.20;45.90;;;;;;5429799;26;20039;-59
2024/04/26 09:30:43;;;;;;;1.50;1.00;;;22.20;45.80;;;;;;5430402;26;20075;-59
2024/04/26 09:33:10;;;;;;;1.17;0.90;;;22.20;45.70;;;;;;5427158;26;20018;-59
2024/04/26 09:35:37;;;;;;;1.30;0.82;;;22.20;45.60;;;;;;5424628;26;20003;-60
2024/04/26 09:38:04;;;;;;;1.15;0.80;;;22.20;45.60;;;;;;5425834;26;20018;-59
2024/04/26 09:40:31;;;;;;;1.33;0.90;;;22.20;45.60;;;;;;5424056;26;19996;-60
2024/04/26 09:42:58;;;;;;;1.63;0.90;;;22.20;45.60;;;;;;5431619;26;20030;-60
2024/04/26 09:45:26;;;;;;;1.85;1.05;;;22.20;45.60;;;;;;5429090;26;20018;-59
2024/04/26 09:47:54;;;;;;;1.60;1.00;;;22.20;45.60;;;;;;5432998;26;19994;-59
2024/04/26 09:50:22;;;;;;;1.02;0.90;;;22.20;45.60;;;;;;5427709;26;19994;-60
2024/04/26 09:52:51;;;;;;;1.33;1.00;;;22.20;45.60;;;;;;5425406;26;20013;-61
2024/04/26 09:55:22;;;;;;;1.55;0.98;;;22.20;45.60;;;;;;5430090;26;20003;-62
2024/04/26 09:57:51;;;;;;;1.45;1.00;;;22.20;45.50;;;;;;5426597;26;20333;-61
2024/04/26 10:00:18;;;;;;;1.45;1.00;;;22.20;45.50;;;;;;5426561;26;20557;-62
2024/04/26 10:02:50;;;;;;;1.67;0.85;;;22.20;45.40;;;;;;5429070;26;19999;-61
2024/04/26 10:05:19;;;;;;;1.73;0.90;;;22.30;45.40;;;;;;5421919;26;20018;-62
2024/04/26 10:08:06;;;;;;;2.22;1.10;;;22.30;45.30;;;;;;5426677;26;20003;-61
2024/04/26 10:10:34;;;;;;;1.30;0.90;;;22.20;45.20;;;;;;5427922;26;19996;-61
2024/04/26 10:13:03;;;;;;;2.08;1.10;;;22.20;45.20;;;;;;5429375;26;20023;-61
2024/04/26 10:15:29;;;;;;;1.20;0.90;;;22.20;45.20;;;;;;5426951;26;21099;-61
2024/04/26 10:17:55;;;;;;;1.58;0.90;;;22.30;45.40;;;;;;5425894;26;20011;-62
2024/04/26 10:20:21;;;;;;;1.38;0.90;;;22.30;45.40;;;;;;5429418;26;20012;-62
2024/04/26 10:23:03;;;;;;;1.80;1.08;;;22.30;45.50;;;;;;5427737;26;21140;-63
2024/04/26 10:25:29;;;;;;;1.38;0.90;;;22.30;45.50;;;;;;5425593;26;19999;-61
2024/04/26 10:28:09;;;;;;;0.80;0.77;;;22.30;45.60;;;;;;5426290;26;20462;-62
2024/04/26 10:30:35;;;;;;;1.60;1.00;;;22.30;45.60;;;;;;5428139;26;20085;-62
2024/04/26 10:33:01;;;;;;;2.13;1.05;;;22.30;45.50;;;;;;5429164;26;20014;-62
2024/04/26 10:35:26;;;;;;;1.02;0.90;;;22.40;45.50;;;;;;5423859;26;20007;-62
2024/04/26 10:37:57;;;;;;;1.70;0.95;;;22.30;45.50;;;;;;5423600;26;20035;-62
2024/04/26 10:40:22;;;;;;;2.10;1.00;;;22.40;45.50;;;;;;5426573;26;19996;-62
2024/04/26 10:42:48;;;;;;;1.25;0.90;;;22.40;45.60;;;;;;5428328;26;20451;-62
2024/04/26 10:45:13;;;;;;;1.30;1.10;;;22.40;46.10;;;;;;5427033;26;19999;-62
2024/04/26 10:47:39;;;;;;;1.67;1.00;;;22.40;45.50;;;;;;5429228;26;20474;-62
2024/04/26 10:50:05;;;;;;;1.48;0.98;;;22.40;45.50;;;;;;5430051;26;20006;-62
2024/04/26 10:52:31;;;;;;;1.75;0.93;;;22.40;45.60;;;;;;5422394;26;20085;-61
2024/04/26 10:54:57;;;;;;;1.52;1.10;;;22.50;45.70;;;;;;5427190;26;20432;-62
2024/04/26 10:57:22;;;;;;;1.92;1.00;;;22.40;45.60;;;;;;5429619;26;20036;-62
2024/04/26 10:59:57;;;;;;;1.95;1.10;;;22.50;45.60;;;;;;5425127;26;20455;-63
2024/04/26 11:02:23;;;;;;;1.83;1.00;;;22.50;45.60;;;;;;5430218;26;20479;-59
2024/04/26 11:05:00;;;;;;;1.40;0.90;;;22.50;45.60;;;;;;5424833;26;20015;-59
2024/04/26 11:07:25;;;;;;;1.63;0.90;;;22.50;45.70;;;;;;5422134;26;20354;-59
2024/04/26 11:09:51;;;;;;;1.20;0.90;;;22.60;45.80;;;;;;5425637;26;20000;-60
2024/04/26 11:12:17;;;;;;;1.92;0.98;;;22.60;45.80;;;;;;5429632;26;20013;-60
2024/04/26 11:14:42;;;;;;;1.58;0.90;;;22.60;45.80;;;;;;5426932;26;20003;-60
2024/04/26 11:17:09;;;;;;;1.77;1.10;;;22.70;45.80;;;;;;5429045;26;21013;-60
2024/04/26 11:19:36;;;;;;;1.50;0.80;;;22.60;45.70;;;;;;5430284;26;20492;-60
2024/04/26 11:22:02;;;;;;;1.38;0.80;;;22.70;45.80;;;;;;5428025;26;19999;-61
2024/04/26 11:24:28;;;;;;;1.65;0.98;;;22.70;45.80;;;;;;5433254;26;20300;-59
2024/04/26 11:26:54;;;;;;;1.80;0.90;;;22.70;45.80;;;;;;5432637;26;19999;-61
2024/04/26 11:29:20;;;;;;;1.45;0.80;;;22.70;45.80;;;;;;5432198;26;20342;-60
2024/04/26 11:31:46;;;;;;;1.65;0.85;;;22.70;45.80;;;;;;5428352;26;19999;-60
2024/04/26 11:34:13;;;;;;;1.40;1.00;;;22.70;45.70;;;;;;5433354;26;20014;-60
2024/04/26 11:36:43;;;;;;;1.63;1.00;;;22.80;45.70;;;;;;5432712;26;19999;-61
2024/04/26 11:39:09;;;;;;;;;;;22.80;45.70;;;;;;5434386;26;19999;-60
2024/04/26 11:41:35;;;;;;;1.55;0.90;;;22.80;45.70;;;;;;5434726;26;21067;-59
2024/04/26 11:44:01;;;;;;;1.70;1.00;;;22.80;45.70;;;;;;5426758;26;20064;-60
2024/04/26 11:46:26;;;;;;;1.60;1.00;;;22.80;45.70;;;;;;5430186;26;20431;-60
2024/04/26 11:48:52;;;;;;;1.40;0.88;;;22.80;45.70;;;;;;5430745;26;20014;-60
2024/04/26 11:51:18;;;;;;;1.10;0.80;;;22.80;45.70;;;;;;5428586;26;19995;-61
2024/04/26 11:53:44;;;;;;;1.45;0.95;;;22.80;45.70;;;;;;5428878;26;20017;-60
2024/04/26 11:56:12;;;;;;;2.28;1.00;;;22.80;45.80;;;;;;5427527;26;20007;-60
2024/04/26 11:58:38;;;;;;;1.30;0.90;;;22.80;45.80;;;;;;5427706;26;20092;-61
2024/04/26 12:01:03;;;;;;;1.80;0.90;;;22.80;45.80;;;;;;5429868;26;20471;-60
2024/04/26 12:03:29;;;;;;;1.75;0.90;;;22.80;45.80;;;;;;5433248;26;20009;-60
2024/04/26 12:05:55;;;;;;;1.40;1.10;;;22.80;45.80;;;;;;5432908;26;20043;-60
2024/04/26 12:08:21;;;;;;;1.48;0.98;;;22.80;46.00;;;;;;5427541;26;20401;-60
2024/04/26 12:10:47;;;;;;;2.08;1.00;;;22.80;46.00;;;;;;5429278;26;20000;-60
2024/04/26 12:13:12;;;;;;;1.17;0.90;;;22.80;46.00;;;;;;5434727;26;20311;-60
2024/04/26 12:15:39;;;;;;;1.88;1.00;;;22.80;45.90;;;;;;5432633;26;20985;-60
2024/04/26 12:18:08;;;;;;;2.17;0.90;;;22.80;45.90;;;;;;5428760;26;19999;-60
2024/04/26 12:20:33;;;;;;;;;;;22.80;45.80;;;;;;5431930;26;20011;-59
2024/04/26 12:22:59;;;;;;;1.90;1.00;;;22.90;45.90;;;;;;5427620;26;20295;-59
2024/04/26 12:25:25;;;;;;;1.38;0.90;;;22.80;45.90;;;;;;5428996;26;20023;-60
2024/04/26 12:27:50;;;;;;;1.45;1.05;;;22.80;45.80;;;;;;5429970;26;19991;-60
2024/04/26 12:30:16;;;;;;;1.15;0.82;;;22.80;45.80;;;;;;5430556;26;20003;-59
2024/04/26 12:32:41;;;;;;;2.15;0.88;;;22.90;45.90;;;;;;5429734;26;20332;-62
2024/04/26 12:35:08;;;;;;;1.65;0.90;;;22.80;45.90;;;;;;5431488;26;20007;-62
2024/04/26 12:37:34;;;;;;;1.17;0.90;;;22.80;45.80;;;;;;5430329;26;20113;-63
2024/04/26 12:40:00;;;;;;;1.50;0.90;;;22.90;45.80;;;;;;5428462;26;20010;-63
2024/04/26 12:42:25;;;;;;;1.55;0.85;;;22.90;46.50;;;;;;5432924;26;20002;-62